Terminal Aerodrome Forecast
Issued by NWS Lake Charles, LA

Home | Current Version | Previous Version | Text Only | Print | Product List | Glossary On
Versions: 1 2 3 4 5 6 7 8 9 10 11 12 13 14 15 16
000
FTUS44 KLCH 182300
TAFAEX
TAF
KAEX 182320Z 1900/1924 18005KT P6SM SCT025 BKN050
     FM190800 00000KT 6SM BR SCT005
      TEMPO 1909/1913 3SM BR BKN005
     FM191400 09004KT P6SM FEW025 SCT050
     FM191800 12010KT P6SM SCT050=

USA.gov is the U.S. government's official web portal to all federal, state and local government web resources and services.